createdAt,value
2017-07-06T00:02:33.834Z,0
2017-07-06T00:12:34.004Z,0
2017-07-06T00:22:33.648Z,0
2017-07-06T00:32:34.404Z,0
2017-07-06T00:42:33.613Z,0
2017-07-06T00:52:33.606Z,0
2017-07-06T01:02:33.635Z,0
2017-07-06T01:12:40.116Z,0
2017-07-06T01:22:34.179Z,0
2017-07-06T01:32:33.748Z,0
2017-07-06T01:42:33.831Z,0
2017-07-06T01:52:33.689Z,0
2017-07-06T02:02:33.661Z,0
2017-07-06T02:12:33.936Z,0
2017-07-06T02:22:33.813Z,0
2017-07-06T02:32:34.555Z,0
2017-07-06T02:42:33.648Z,0
2017-07-06T02:52:34.696Z,0
2017-07-06T03:02:34.269Z,0
2017-07-06T03:12:34.511Z,0
2017-07-06T03:22:33.699Z,5
2017-07-06T03:32:33.690Z,10
2017-07-06T03:42:33.657Z,20
2017-07-06T03:52:33.743Z,25
2017-07-06T04:02:33.693Z,40
2017-07-06T04:12:33.728Z,55
2017-07-06T04:22:33.919Z,70
2017-07-06T04:32:33.765Z,80
2017-07-06T04:42:33.711Z,90
2017-07-06T04:52:33.939Z,100
2017-07-06T05:02:33.708Z,110
2017-07-06T05:12:33.638Z,130
2017-07-06T05:22:33.772Z,130
2017-07-06T05:32:33.725Z,135
2017-07-06T05:42:33.698Z,145
2017-07-06T05:52:33.835Z,185
2017-07-06T06:02:33.720Z,310
2017-07-06T06:12:33.826Z,335
2017-07-06T06:22:33.759Z,355
2017-07-06T06:32:33.788Z,310
2017-07-06T06:42:33.807Z,325
2017-07-06T06:52:33.677Z,335
2017-07-06T07:02:33.963Z,350
2017-07-06T07:12:33.880Z,370
2017-07-06T07:22:33.841Z,370
2017-07-06T07:32:33.893Z,365
2017-07-06T07:42:33.862Z,365
2017-07-06T07:52:33.699Z,370
2017-07-06T08:02:33.718Z,390
2017-07-06T08:12:33.698Z,385
2017-07-06T08:22:33.733Z,400
2017-07-06T08:32:33.685Z,395
2017-07-06T08:42:33.864Z,380
2017-07-06T08:52:33.702Z,345
2017-07-06T09:02:33.762Z,320
2017-07-06T09:12:33.736Z,185
2017-07-06T09:22:33.772Z,160
2017-07-06T09:32:33.769Z,165
2017-07-06T09:42:33.838Z,155
2017-07-06T09:52:33.781Z,155
2017-07-06T10:02:33.825Z,150
2017-07-06T10:12:33.769Z,145
2017-07-06T10:22:33.845Z,175
2017-07-06T10:32:33.772Z,140
2017-07-06T10:42:33.798Z,145
2017-07-06T10:52:33.811Z,140
2017-07-06T11:02:33.798Z,140
2017-07-06T11:12:33.827Z,135
2017-07-06T11:22:33.777Z,140
2017-07-06T11:32:33.796Z,130
2017-07-06T11:42:33.767Z,130
2017-07-06T11:52:33.803Z,125
2017-07-06T12:02:33.822Z,125
2017-07-06T12:12:33.785Z,125
2017-07-06T12:22:33.767Z,125
2017-07-06T12:32:33.846Z,120
2017-07-06T12:42:33.810Z,120
2017-07-06T12:52:34.107Z,120
2017-07-06T13:02:33.877Z,115
2017-07-06T13:12:33.831Z,115
2017-07-06T13:22:33.827Z,125
2017-07-06T13:32:34.477Z,130
2017-07-06T13:42:36.229Z,145
2017-07-06T13:52:34.246Z,140
2017-07-06T14:02:34.029Z,155
2017-07-06T14:12:34.430Z,170
2017-07-06T14:22:33.912Z,230
2017-07-06T14:32:34.468Z,230
2017-07-06T14:42:34.340Z,230
2017-07-06T14:52:33.888Z,230
2017-07-06T15:02:35.383Z,230
2017-07-06T15:12:34.058Z,210
2017-07-06T15:22:34.922Z,195
2017-07-06T15:32:33.863Z,185
2017-07-06T15:42:33.783Z,185
2017-07-06T15:52:33.899Z,200
2017-07-06T16:02:34.056Z,190
2017-07-06T16:12:33.977Z,200
2017-07-06T16:22:33.821Z,150
2017-07-06T16:32:33.829Z,140
2017-07-06T16:42:33.855Z,110
2017-07-06T16:52:34.951Z,115
2017-07-06T17:02:33.859Z,105
2017-07-06T17:12:33.953Z,85
2017-07-06T17:22:34.364Z,85
2017-07-06T17:32:33.982Z,90
2017-07-06T17:42:33.879Z,80
2017-07-06T17:52:33.940Z,70
2017-07-06T18:02:33.860Z,55
2017-07-06T18:12:33.905Z,60
2017-07-06T18:22:34.181Z,45
2017-07-06T18:32:33.883Z,40
2017-07-06T18:42:33.898Z,35
2017-07-06T18:52:33.945Z,20
2017-07-06T19:02:34.375Z,25
2017-07-06T19:12:33.908Z,15
2017-07-06T19:22:33.859Z,5
2017-07-06T19:32:33.896Z,5
2017-07-06T19:42:34.464Z,0
2017-07-06T19:52:33.905Z,0
2017-07-06T20:02:33.870Z,0
2017-07-06T20:12:33.897Z,0
2017-07-06T20:22:33.944Z,0
2017-07-06T20:32:35.356Z,0
2017-07-06T20:42:33.988Z,0
2017-07-06T20:52:35.404Z,0
2017-07-06T21:02:34.351Z,0
2017-07-06T21:12:34.332Z,0
2017-07-06T21:22:34.168Z,0
2017-07-06T21:32:33.872Z,0
2017-07-06T21:42:34.026Z,0
2017-07-06T21:52:33.961Z,0
2017-07-06T22:02:33.998Z,0
2017-07-06T22:12:34.137Z,0
2017-07-06T22:22:33.878Z,0
2017-07-06T22:32:33.964Z,0
2017-07-06T22:42:34.450Z,0
2017-07-06T22:52:36.782Z,0
2017-07-06T23:02:33.909Z,0
2017-07-06T23:12:33.910Z,0
2017-07-06T23:22:34.492Z,0
2017-07-06T23:32:40.627Z,0
2017-07-06T23:42:34.954Z,0
2017-07-06T23:52:33.990Z,0
